createdAt,value
2022-10-17T00:00:21.541Z,93235.00
2022-10-17T00:02:54.487Z,93243.28
2022-10-17T00:05:27.272Z,93242.53
2022-10-17T00:07:59.347Z,93247.63
2022-10-17T00:10:31.346Z,93249.97
2022-10-17T00:13:03.745Z,93251.94
2022-10-17T00:15:35.824Z,93248.44
2022-10-17T00:18:07.766Z,93250.81
2022-10-17T00:20:40.556Z,93255.09
2022-10-17T00:23:12.545Z,93257.13
2022-10-17T00:25:44.686Z,93251.16
2022-10-17T00:28:16.651Z,93263.00
2022-10-17T00:30:54.927Z,93256.50
2022-10-17T00:33:27.369Z,93259.75
2022-10-17T00:36:04.897Z,93254.94
2022-10-17T00:38:36.883Z,93263.13
2022-10-17T00:41:09.793Z,93262.00
2022-10-17T00:43:48.802Z,93267.16
2022-10-17T00:46:21.964Z,93264.47
2022-10-17T00:48:55.035Z,93274.81
2022-10-17T00:51:31.506Z,93262.50
2022-10-17T00:54:03.893Z,93269.56
2022-10-17T00:56:36.233Z,93259.44
2022-10-17T00:59:08.890Z,93259.44
2022-10-17T01:01:47.899Z,93257.91
2022-10-17T01:04:19.921Z,93263.00
2022-10-17T01:06:52.644Z,93253.41
2022-10-17T01:09:24.860Z,93253.25
2022-10-17T01:12:04.187Z,93254.16
2022-10-17T01:14:45.089Z,93258.31
2022-10-17T01:17:21.984Z,93265.81
2022-10-17T01:20:15.681Z,93255.03
2022-10-17T01:22:50.499Z,93253.81
2022-10-17T01:25:28.963Z,93251.22
2022-10-17T01:28:11.541Z,93251.13
2022-10-17T01:30:55.878Z,93254.63
2022-10-17T01:33:40.779Z,93255.94
2022-10-17T01:36:17.097Z,93253.47
2022-10-17T01:38:51.604Z,93250.34
2022-10-17T01:41:28.830Z,93253.38
2022-10-17T01:44:04.240Z,93248.34
2022-10-17T01:46:38.002Z,93250.28
2022-10-17T01:49:11.418Z,93256.34
2022-10-17T01:51:46.278Z,93262.28
2022-10-17T01:54:21.183Z,93262.50
2022-10-17T01:56:56.372Z,93264.53
2022-10-17T01:59:30.735Z,93272.06
2022-10-17T02:02:04.933Z,93268.34
2022-10-17T02:04:37.153Z,93273.53
2022-10-17T02:07:10.246Z,93268.59
2022-10-17T02:09:42.617Z,93263.97
2022-10-17T02:12:29.486Z,93268.59
2022-10-17T02:15:10.343Z,93268.00
2022-10-17T02:17:48.203Z,93270.16
2022-10-17T02:20:22.887Z,93275.66
2022-10-17T02:22:58.310Z,93273.72
2022-10-17T02:25:35.402Z,93266.56
2022-10-17T02:28:16.344Z,93274.88
2022-10-17T02:30:51.621Z,93275.22
2022-10-17T02:33:27.872Z,93272.38
2022-10-17T02:36:05.171Z,93277.22
2022-10-17T02:38:38.208Z,93279.34
2022-10-17T02:41:14.138Z,93280.25
2022-10-17T02:43:47.031Z,93285.97
2022-10-17T02:46:21.190Z,93292.81
2022-10-17T02:48:57.611Z,93289.31
2022-10-17T02:51:35.113Z,93292.34
2022-10-17T02:54:11.126Z,93295.38
2022-10-17T02:56:48.532Z,93286.63
2022-10-17T02:59:22.533Z,93295.69
2022-10-17T03:01:54.642Z,93296.13
2022-10-17T03:04:27.281Z,93292.41
2022-10-17T03:06:59.351Z,93296.69
2022-10-17T03:09:31.353Z,93295.88
2022-10-17T03:12:03.549Z,93287.91
2022-10-17T03:14:35.550Z,93298.31
2022-10-17T03:17:08.654Z,93298.91
2022-10-17T03:19:41.639Z,93293.75
2022-10-17T03:22:14.306Z,93302.03
2022-10-17T03:24:48.981Z,93305.44
2022-10-17T03:27:22.267Z,93301.03
2022-10-17T03:29:54.418Z,93305.63
2022-10-17T03:32:26.638Z,93302.72
2022-10-17T03:35:00.027Z,93299.44
2022-10-17T03:37:32.782Z,93300.34
2022-10-17T03:40:05.591Z,93297.44
2022-10-17T03:42:37.873Z,93301.19
2022-10-17T03:45:10.510Z,93304.75
2022-10-17T03:47:42.856Z,93302.53
2022-10-17T03:50:15.663Z,93305.47
2022-10-17T03:52:48.786Z,93308.69
2022-10-17T03:55:20.780Z,93310.50
2022-10-17T03:57:52.761Z,93303.31
2022-10-17T04:00:26.400Z,93306.47
2022-10-17T04:03:02.082Z,93312.00
2022-10-17T04:05:34.789Z,93303.88
2022-10-17T04:08:06.861Z,93300.19
2022-10-17T04:10:58.999Z,93309.22
2022-10-17T04:13:31.518Z,93310.03
2022-10-17T04:16:05.194Z,93305.88
2022-10-17T04:18:37.322Z,93314.94
2022-10-17T04:21:10.445Z,93311.59
2022-10-17T04:23:42.597Z,93319.53
2022-10-17T04:26:25.608Z,93317.75
2022-10-17T04:28:57.797Z,93320.06
2022-10-17T04:31:29.807Z,93309.97
2022-10-17T04:34:20.243Z,93318.50
2022-10-17T04:36:53.476Z,93321.06
2022-10-17T04:39:25.597Z,93317.56
2022-10-17T04:41:57.642Z,93325.94
2022-10-17T04:44:30.746Z,93324.22
2022-10-17T04:47:03.939Z,93324.72
2022-10-17T04:49:36.420Z,93328.31
2022-10-17T04:52:15.458Z,93330.31
2022-10-17T04:54:53.570Z,93325.72
2022-10-17T04:57:26.862Z,93322.16
2022-10-17T05:00:12.310Z,93332.66
2022-10-17T05:03:02.407Z,93326.66
2022-10-17T05:05:36.831Z,93329.38
2022-10-17T05:08:10.709Z,93327.88
2022-10-17T05:10:43.474Z,93339.25
2022-10-17T05:13:15.581Z,93339.41
2022-10-17T05:15:47.636Z,93335.09
2022-10-17T05:18:20.895Z,93338.63
2022-10-17T05:20:52.970Z,93344.06
2022-10-17T05:23:25.642Z,93339.47
2022-10-17T05:25:57.640Z,93347.00
2022-10-17T05:28:29.692Z,93345.16
2022-10-17T05:31:05.466Z,93338.97
2022-10-17T05:33:38.252Z,93347.66
2022-10-17T05:36:10.483Z,93349.16
2022-10-17T05:38:43.190Z,93348.16
2022-10-17T05:41:15.920Z,93354.34
2022-10-17T05:43:49.501Z,93356.28
2022-10-17T05:46:25.839Z,93358.97
2022-10-17T05:48:57.789Z,93360.22
2022-10-17T05:51:29.845Z,93362.34
2022-10-17T05:54:04.545Z,93377.94
2022-10-17T05:56:36.542Z,93374.88
2022-10-17T05:59:08.565Z,93370.72
2022-10-17T06:01:56.981Z,93375.84
2022-10-17T06:04:29.024Z,93380.34
2022-10-17T06:07:01.066Z,93378.97
2022-10-17T06:09:34.277Z,93378.78
2022-10-17T06:12:07.730Z,93380.44
2022-10-17T06:14:39.817Z,93384.09
2022-10-17T06:17:16.017Z,93378.63
2022-10-17T06:19:48.994Z,93387.75
2022-10-17T06:22:21.247Z,93385.97
2022-10-17T06:24:53.939Z,93391.94
2022-10-17T06:27:25.934Z,93395.25
2022-10-17T06:29:57.919Z,93391.38
2022-10-17T06:32:30.344Z,93399.56
2022-10-17T06:35:02.460Z,93399.69
2022-10-17T06:37:37.140Z,93397.25
2022-10-17T06:40:16.134Z,93404.53
2022-10-17T06:42:48.221Z,93399.06
2022-10-17T06:45:39.221Z,93401.94
2022-10-17T06:48:22.207Z,93405.97
2022-10-17T06:51:12.635Z,93406.75
2022-10-17T06:53:58.393Z,93407.94
2022-10-17T06:56:49.478Z,93409.09
2022-10-17T06:59:36.210Z,93407.59
2022-10-17T07:02:23.548Z,93413.00
2022-10-17T07:04:56.206Z,93412.53
2022-10-17T07:07:30.339Z,93417.22
2022-10-17T07:10:03.590Z,93419.41
2022-10-17T07:12:36.950Z,93424.38
2022-10-17T07:15:09.212Z,93420.56
2022-10-17T07:17:41.218Z,93416.03
2022-10-17T07:20:14.024Z,93410.75
2022-10-17T07:22:47.003Z,93419.84
2022-10-17T07:25:19.022Z,93417.28
2022-10-17T07:28:01.981Z,93429.13
2022-10-17T07:30:34.116Z,93426.63
2022-10-17T07:33:11.271Z,93430.31
2022-10-17T07:35:43.575Z,93434.50
2022-10-17T07:38:16.210Z,93424.38
2022-10-17T07:40:53.501Z,93433.56
2022-10-17T07:43:26.823Z,93441.16
2022-10-17T07:46:00.701Z,93440.16
2022-10-17T07:48:32.832Z,93449.28
2022-10-17T07:51:06.366Z,93450.38
2022-10-17T07:53:39.167Z,93438.16
2022-10-17T07:56:11.263Z,93438.69
2022-10-17T07:58:44.107Z,93446.00
2022-10-17T08:01:16.939Z,93435.84
2022-10-17T08:03:48.861Z,93442.66
2022-10-17T08:06:20.827Z,93442.38
2022-10-17T08:08:52.831Z,93445.50
2022-10-17T08:11:24.967Z,93440.31
2022-10-17T08:13:57.627Z,93440.84
2022-10-17T08:16:29.621Z,93439.53
2022-10-17T08:19:01.941Z,93454.13
2022-10-17T08:21:34.068Z,93441.59
2022-10-17T08:24:06.180Z,93453.31
2022-10-17T08:26:42.375Z,93454.84
2022-10-17T08:29:16.620Z,93448.03
2022-10-17T08:31:49.972Z,93448.81
2022-10-17T08:34:24.375Z,93448.25
2022-10-17T08:36:56.507Z,93446.38
2022-10-17T08:39:28.531Z,93441.88
2022-10-17T08:42:08.760Z,93444.16
2022-10-17T08:44:49.978Z,93444.16
2022-10-17T08:47:25.983Z,93449.34
2022-10-17T08:50:00.604Z,93455.03
2022-10-17T08:52:38.349Z,93451.88
2022-10-17T08:55:14.609Z,93446.00
2022-10-17T08:57:47.617Z,93436.78
2022-10-17T09:00:21.315Z,93444.88
2022-10-17T09:03:01.857Z,93436.19
2022-10-17T09:05:37.520Z,93446.00
2022-10-17T09:08:14.699Z,93455.72
2022-10-17T09:10:52.055Z,93452.72
2022-10-17T09:13:34.316Z,93454.81
2022-10-17T09:16:11.046Z,93451.31
2022-10-17T09:18:45.905Z,93441.06
2022-10-17T09:21:20.553Z,93453.00
2022-10-17T09:23:59.607Z,93452.91
2022-10-17T09:26:42.236Z,93457.53
2022-10-17T09:29:19.700Z,93454.91
2022-10-17T09:31:58.435Z,93460.19
2022-10-17T09:34:31.826Z,93452.00
2022-10-17T09:37:09.198Z,93447.63
2022-10-17T09:39:41.990Z,93458.16
2022-10-17T09:42:15.073Z,93456.13
2022-10-17T09:44:48.807Z,93455.31
2022-10-17T09:47:29.304Z,93457.97
2022-10-17T09:50:01.363Z,93454.34
2022-10-17T09:52:34.993Z,93448.94
2022-10-17T09:55:15.455Z,93453.66
2022-10-17T09:57:55.198Z,93451.81
2022-10-17T10:00:28.212Z,93449.66
2022-10-17T10:03:10.993Z,93451.09
2022-10-17T10:05:57.306Z,93453.84
2022-10-17T10:08:30.343Z,93443.63
2022-10-17T10:11:04.480Z,93440.06
2022-10-17T10:13:36.450Z,93449.09
2022-10-17T10:16:16.323Z,93433.84
2022-10-17T10:18:50.996Z,93434.91
2022-10-17T10:21:24.034Z,93433.28
2022-10-17T10:24:03.708Z,93439.59
2022-10-17T10:26:38.473Z,93435.88
2022-10-17T10:29:20.366Z,93437.44
2022-10-17T10:31:53.056Z,93434.72
2022-10-17T10:34:27.066Z,93435.38
2022-10-17T10:37:00.941Z,93418.22
2022-10-17T10:39:39.981Z,93422.53
2022-10-17T10:42:24.281Z,93415.69
2022-10-17T10:44:59.284Z,93420.56
2022-10-17T10:47:32.513Z,93408.28
2022-10-17T10:50:24.358Z,93405.34
2022-10-17T10:53:13.078Z,93408.06
2022-10-17T10:55:47.543Z,93409.69
2022-10-17T10:58:24.701Z,93397.94
2022-10-17T11:00:58.484Z,93398.84
2022-10-17T11:03:32.715Z,93403.31
2022-10-17T11:06:10.954Z,93395.28
2022-10-17T11:08:45.530Z,93394.59
2022-10-17T11:11:26.128Z,93398.69
2022-10-17T11:14:00.136Z,93395.88
2022-10-17T11:16:35.559Z,93392.69
2022-10-17T11:19:13.035Z,93397.69
2022-10-17T11:21:47.425Z,93392.22
2022-10-17T11:24:23.294Z,93391.69
2022-10-17T11:26:58.536Z,93382.72
2022-10-17T11:29:31.816Z,93378.66
2022-10-17T11:32:06.545Z,93375.53
2022-10-17T11:34:41.769Z,93380.28
2022-10-17T11:37:17.354Z,93380.28
2022-10-17T11:39:51.749Z,93384.66
2022-10-17T11:42:25.575Z,93373.06
2022-10-17T11:45:00.415Z,93374.34
2022-10-17T11:47:36.547Z,93380.91
2022-10-17T11:53:11.667Z,93373.50
2022-10-17T11:55:44.149Z,93366.50
2022-10-17T11:58:23.290Z,93370.81
2022-10-17T12:00:59.722Z,93368.19
2022-10-17T12:03:37.683Z,93361.03
2022-10-17T12:06:14.239Z,93361.66
2022-10-17T12:08:52.004Z,93360.25
2022-10-17T12:11:33.822Z,93362.13
2022-10-17T12:14:28.908Z,93360.88
2022-10-17T12:17:01.294Z,93361.03
2022-10-17T12:19:34.815Z,93365.41
2022-10-17T12:22:18.445Z,93362.94
2022-10-17T12:24:58.685Z,93368.94
2022-10-17T12:27:36.384Z,93366.94
2022-10-17T12:30:22.859Z,93362.44
2022-10-17T12:33:07.405Z,93359.47
2022-10-17T12:35:39.897Z,93367.53
2022-10-17T12:38:19.008Z,93360.28
2022-10-17T12:40:55.942Z,93362.91
2022-10-17T12:43:44.961Z,93361.03
2022-10-17T12:46:43.864Z,93356.06
2022-10-17T12:49:34.151Z,93360.69
2022-10-17T12:52:14.910Z,93357.13
2022-10-17T12:55:00.330Z,93361.75
2022-10-17T12:57:42.589Z,93358.06
2022-10-17T13:00:16.803Z,93355.38
2022-10-17T13:02:49.663Z,93357.84
2022-10-17T13:05:25.632Z,93350.66
2022-10-17T13:07:59.966Z,93356.91
2022-10-17T13:10:33.462Z,93348.53
2022-10-17T13:13:08.711Z,93352.22
2022-10-17T13:15:45.406Z,93355.63
2022-10-17T13:18:20.158Z,93355.56
2022-10-17T13:20:56.149Z,93352.66
2022-10-17T13:23:32.632Z,93356.00
2022-10-17T13:26:06.388Z,93351.34
2022-10-17T13:28:39.716Z,93350.03
2022-10-17T13:31:26.959Z,93349.75
2022-10-17T13:34:01.835Z,93350.88
2022-10-17T13:36:34.481Z,93350.41
2022-10-17T13:39:12.483Z,93350.44
2022-10-17T13:41:46.904Z,93353.47
2022-10-17T13:44:20.948Z,93346.78
2022-10-17T13:46:53.113Z,93350.19
2022-10-17T13:49:29.649Z,93344.81
2022-10-17T13:53:04.857Z,93346.97
2022-10-17T13:56:03.589Z,93354.25
2022-10-17T13:58:43.367Z,93354.56
2022-10-17T14:01:15.882Z,93350.50
2022-10-17T14:03:50.189Z,93365.44
2022-10-17T14:06:26.695Z,93365.22
2022-10-17T14:09:00.430Z,93360.88
2022-10-17T14:11:33.823Z,93359.56
2022-10-17T14:14:07.045Z,93355.31
2022-10-17T14:16:40.507Z,93362.94
2022-10-17T14:19:21.005Z,93373.16
2022-10-17T14:21:53.951Z,93361.31
2022-10-17T14:24:28.391Z,93366.63
2022-10-17T14:27:00.431Z,93367.50
2022-10-17T14:29:49.850Z,93361.66
2022-10-17T14:32:22.199Z,93361.66
2022-10-17T14:35:05.526Z,93362.31
2022-10-17T14:37:48.355Z,93364.38
2022-10-17T14:40:22.925Z,93367.91
2022-10-17T14:42:56.447Z,93369.91
2022-10-17T14:45:29.708Z,93369.63
2022-10-17T14:48:02.671Z,93374.28
2022-10-17T14:50:35.551Z,93378.44
2022-10-17T14:53:20.574Z,93381.66
2022-10-17T14:55:56.847Z,93381.00
2022-10-17T14:58:30.064Z,93386.06
2022-10-17T15:01:02.140Z,93386.84
2022-10-17T15:03:34.096Z,93384.78
2022-10-17T15:06:15.098Z,93386.44
2022-10-17T15:08:47.056Z,93391.19
2022-10-17T15:11:19.706Z,93391.75
2022-10-17T15:13:51.654Z,93394.50
2022-10-17T15:16:24.692Z,93394.31
2022-10-17T15:18:56.703Z,93393.22
2022-10-17T15:21:39.282Z,93401.63
2022-10-17T15:24:15.110Z,93400.75
2022-10-17T15:26:48.730Z,93399.69
2022-10-17T15:29:20.702Z,93401.44
2022-10-17T15:31:52.674Z,93406.19
2022-10-17T15:34:24.658Z,93406.34
2022-10-17T15:36:56.693Z,93410.00
2022-10-17T15:39:28.651Z,93405.84
2022-10-17T15:42:01.292Z,93403.47
2022-10-17T15:44:33.270Z,93406.34
2022-10-17T15:47:05.454Z,93406.47
2022-10-17T15:49:37.501Z,93415.41
2022-10-17T15:52:09.642Z,93420.44
2022-10-17T15:54:41.623Z,93421.94
2022-10-17T15:57:17.686Z,93423.56
2022-10-17T15:59:50.082Z,93420.53
2022-10-17T16:02:22.911Z,93426.69
2022-10-17T16:04:54.916Z,93424.25
2022-10-17T16:07:27.029Z,93424.88
2022-10-17T16:09:59.181Z,93415.88
2022-10-17T16:12:36.206Z,93430.75
2022-10-17T16:15:13.411Z,93432.94
2022-10-17T16:17:45.429Z,93438.41
2022-10-17T16:20:17.452Z,93446.03
2022-10-17T16:22:49.502Z,93447.94
2022-10-17T16:25:22.572Z,93445.16
2022-10-17T16:27:55.949Z,93451.44
2022-10-17T16:30:28.766Z,93449.44
2022-10-17T16:33:00.754Z,93455.19
2022-10-17T16:35:36.588Z,93445.75
2022-10-17T16:38:09.625Z,93455.69
2022-10-17T16:40:41.635Z,93455.13
2022-10-17T16:43:14.309Z,93459.31
2022-10-17T16:45:46.329Z,93460.63
2022-10-17T16:48:18.319Z,93457.78
2022-10-17T16:50:50.338Z,93459.63
2022-10-17T16:53:22.358Z,93470.94
2022-10-17T16:55:58.847Z,93466.25
2022-10-17T16:58:31.739Z,93472.88
2022-10-17T17:01:04.418Z,93478.59
2022-10-17T17:03:36.826Z,93477.84
2022-10-17T17:06:11.943Z,93480.41
2022-10-17T17:08:43.928Z,93475.19
2022-10-17T17:11:16.800Z,93482.00
2022-10-17T17:13:49.480Z,93482.03
2022-10-17T17:16:22.980Z,93486.53
2022-10-17T17:18:55.658Z,93479.25
2022-10-17T17:21:27.678Z,93481.38
2022-10-17T17:24:00.595Z,93471.16
2022-10-17T17:26:35.139Z,93483.28
2022-10-17T17:29:07.960Z,93484.03
2022-10-17T17:31:40.022Z,93490.09
2022-10-17T17:34:14.339Z,93497.69
2022-10-17T17:36:49.254Z,93494.03
2022-10-17T17:39:21.454Z,93490.69
2022-10-17T17:41:53.447Z,93501.41
2022-10-17T17:44:26.087Z,93492.59
2022-10-17T17:46:58.132Z,93496.22
2022-10-17T17:49:30.133Z,93496.22
2022-10-17T17:54:38.499Z,93498.09
2022-10-17T17:57:12.873Z,93488.72
2022-10-17T17:59:47.778Z,93493.72
2022-10-17T18:02:19.759Z,93497.13
2022-10-17T18:04:51.715Z,93496.34
2022-10-17T18:07:23.883Z,93498.97
2022-10-17T18:09:56.303Z,93496.34
2022-10-17T18:12:29.633Z,93501.31
2022-10-17T18:15:03.450Z,93498.72
2022-10-17T18:17:35.444Z,93495.09
2022-10-17T18:20:07.774Z,93499.28
2022-10-17T18:22:39.725Z,93506.34
2022-10-17T18:25:11.739Z,93500.34
2022-10-17T18:27:43.732Z,93507.13
2022-10-17T18:30:16.487Z,93506.34
2022-10-17T18:32:48.558Z,93504.78
2022-10-17T18:35:20.617Z,93505.28
2022-10-17T18:37:55.742Z,93500.81
2022-10-17T18:40:27.770Z,93500.03
2022-10-17T18:42:59.714Z,93500.22
2022-10-17T18:45:32.331Z,93494.47
2022-10-17T18:48:04.602Z,93503.59
2022-10-17T18:50:38.355Z,93497.03
2022-10-17T18:53:10.320Z,93500.13
2022-10-17T18:55:42.314Z,93502.97
2022-10-17T18:58:14.294Z,93503.66
2022-10-17T19:00:47.033Z,93511.91
2022-10-17T19:03:18.978Z,93509.53
2022-10-17T19:05:50.945Z,93514.16
2022-10-17T19:08:22.922Z,93509.91
2022-10-17T19:10:54.930Z,93517.94
2022-10-17T19:13:26.894Z,93523.00
2022-10-17T19:15:59.537Z,93531.28
2022-10-17T19:18:31.535Z,93525.78
2022-10-17T19:21:04.087Z,93527.03
2022-10-17T19:23:36.307Z,93527.41
2022-10-17T19:26:10.558Z,93522.91
2022-10-17T19:28:42.688Z,93523.72
2022-10-17T19:31:17.918Z,93520.66
2022-10-17T19:33:52.058Z,93523.25
2022-10-17T19:36:27.549Z,93521.41
2022-10-17T19:39:03.746Z,93528.13
2022-10-17T19:41:35.884Z,93526.00
2022-10-17T19:44:08.200Z,93524.66
2022-10-17T19:46:43.574Z,93529.22
2022-10-17T19:49:15.744Z,93524.75
2022-10-17T19:51:47.819Z,93530.25
2022-10-17T19:54:19.780Z,93526.22
2022-10-17T19:56:51.772Z,93528.03
2022-10-17T20:02:03.051Z,93538.41
2022-10-17T20:04:35.091Z,93533.16
2022-10-17T20:07:07.058Z,93534.63
2022-10-17T20:09:39.022Z,93535.59
2022-10-17T20:12:11.027Z,93536.84
2022-10-17T20:14:43.005Z,93541.66
2022-10-17T20:17:15.685Z,93537.94
2022-10-17T20:19:47.672Z,93539.22
2022-10-17T20:22:19.593Z,93531.44
2022-10-17T20:24:51.573Z,93534.81
2022-10-17T20:27:27.521Z,93539.13
2022-10-17T20:30:01.200Z,93534.66
2022-10-17T20:32:34.311Z,93529.59
2022-10-17T20:35:07.382Z,93530.94
2022-10-17T20:37:42.380Z,93531.56
2022-10-17T20:40:34.988Z,93535.19
2022-10-17T20:43:07.549Z,93526.44
2022-10-17T20:45:50.932Z,93531.41
2022-10-17T20:48:24.363Z,93526.28
2022-10-17T20:50:56.326Z,93528.41
2022-10-17T20:53:37.355Z,93527.06
2022-10-17T20:56:12.930Z,93520.69
2022-10-17T20:58:45.017Z,93523.19
2022-10-17T21:01:17.161Z,93524.75
2022-10-17T21:03:50.117Z,93528.59
2022-10-17T21:06:22.953Z,93526.72
2022-10-17T21:08:55.614Z,93525.69
2022-10-17T21:11:28.125Z,93517.72
2022-10-17T21:14:00.961Z,93515.81
2022-10-17T21:16:34.324Z,93521.34
2022-10-17T21:19:07.151Z,93523.34
2022-10-17T21:21:40.107Z,93524.41
2022-10-17T21:24:13.478Z,93525.09
2022-10-17T21:26:46.027Z,93530.50
2022-10-17T21:29:18.035Z,93527.34
2022-10-17T21:31:49.978Z,93519.78
2022-10-17T21:34:23.934Z,93522.47
2022-10-17T21:36:55.993Z,93527.50
2022-10-17T21:39:27.999Z,93527.19
2022-10-17T21:41:59.974Z,93527.75
2022-10-17T21:44:31.944Z,93526.41
2022-10-17T21:47:03.992Z,93526.53
2022-10-17T21:49:37.507Z,93525.41
2022-10-17T21:52:09.487Z,93524.47
2022-10-17T21:54:41.473Z,93517.50
2022-10-17T21:57:13.544Z,93521.78
2022-10-17T21:59:45.546Z,93523.34
2022-10-17T22:02:17.554Z,93519.91
2022-10-17T22:04:50.178Z,93524.28
2022-10-17T22:07:22.144Z,93519.69
2022-10-17T22:09:54.126Z,93520.38
2022-10-17T22:12:26.115Z,93519.13
2022-10-17T22:14:58.101Z,93519.13
2022-10-17T22:17:30.402Z,93515.84
2022-10-17T22:20:03.466Z,93514.63
2022-10-17T22:22:35.463Z,93511.25
2022-10-17T22:25:08.016Z,93515.09
2022-10-17T22:27:40.073Z,93513.63
2022-10-17T22:30:12.065Z,93515.41
2022-10-17T22:32:44.079Z,93518.38
2022-10-17T22:35:16.937Z,93513.84
2022-10-17T22:37:48.916Z,93510.16
2022-10-17T22:40:20.903Z,93518.91
2022-10-17T22:42:52.852Z,93514.75
2022-10-17T22:45:24.830Z,93520.16
2022-10-17T22:47:56.962Z,93517.91
2022-10-17T22:50:29.634Z,93518.03
2022-10-17T22:53:01.598Z,93511.75
2022-10-17T22:55:33.579Z,93518.38
2022-10-17T22:58:05.557Z,93508.91
2022-10-17T23:00:38.543Z,93508.13
2022-10-17T23:03:10.623Z,93510.97
2022-10-17T23:05:43.587Z,93507.56
2022-10-17T23:08:17.148Z,93508.34
2022-10-17T23:10:49.130Z,93505.22
2022-10-17T23:13:21.323Z,93511.41
2022-10-17T23:15:54.390Z,93507.91
2022-10-17T23:18:26.916Z,93506.75
2022-10-17T23:20:59.530Z,93508.69
2022-10-17T23:23:31.493Z,93507.78
2022-10-17T23:26:04.001Z,93508.22
2022-10-17T23:28:36.168Z,93506.19
2022-10-17T23:31:09.162Z,93503.06
2022-10-17T23:33:41.416Z,93497.84
2022-10-17T23:36:14.964Z,93504.16
2022-10-17T23:38:47.235Z,93493.16
2022-10-17T23:41:19.206Z,93488.41
2022-10-17T23:43:51.146Z,93488.19
2022-10-17T23:46:23.082Z,93493.59
2022-10-17T23:48:55.029Z,93487.06
2022-10-17T23:51:27.813Z,93480.09
2022-10-17T23:53:59.790Z,93486.72
2022-10-17T23:56:31.752Z,93479.44
2022-10-17T23:59:03.907Z,93486.72
